createdAt,value
2018-10-01T00:02:00.513Z,11.61
2018-10-01T00:04:28.598Z,11.57
2018-10-01T00:06:56.686Z,11.54
2018-10-01T00:09:24.777Z,11.51
2018-10-01T00:11:52.875Z,11.51
2018-10-01T00:14:20.981Z,11.47
2018-10-01T00:16:49.081Z,11.44
2018-10-01T00:19:22.694Z,11.42
2018-10-01T00:21:56.320Z,11.44
2018-10-01T00:24:24.598Z,11.45
2018-10-01T00:26:52.686Z,11.48
2018-10-01T00:29:20.763Z,11.54
2018-10-01T00:31:49.013Z,11.58
2018-10-01T00:34:17.405Z,11.62
2018-10-01T00:36:45.770Z,11.65
2018-10-01T00:39:13.869Z,11.70
2018-10-01T00:41:42.224Z,11.74
2018-10-01T00:44:10.350Z,11.79
2018-10-01T00:46:38.478Z,11.81
2018-10-01T00:49:06.930Z,11.85
2018-10-01T00:51:35.087Z,11.87
2018-10-01T00:54:03.252Z,11.90
2018-10-01T00:56:31.352Z,11.93
2018-10-01T00:59:00.101Z,11.95
2018-10-01T01:01:28.329Z,11.98
2018-10-01T01:03:56.437Z,12.00
2018-10-01T01:06:32.331Z,12.02
2018-10-01T01:09:00.479Z,12.03
2018-10-01T01:11:28.584Z,12.03
2018-10-01T01:13:56.694Z,12.05
2018-10-01T01:16:24.795Z,12.06
2018-10-01T01:18:53.060Z,12.07
2018-10-01T01:21:21.177Z,12.07
2018-10-01T01:23:49.293Z,12.09
2018-10-01T01:26:17.423Z,12.11
2018-10-01T01:28:45.588Z,12.11
2018-10-01T01:31:13.696Z,12.11
2018-10-01T01:33:44.819Z,12.11
2018-10-01T01:36:13.006Z,12.12
2018-10-01T01:38:41.114Z,12.13
2018-10-01T01:41:09.228Z,12.14
2018-10-01T01:43:37.339Z,12.16
2018-10-01T01:46:05.448Z,12.17
2018-10-01T01:48:33.601Z,12.18
2018-10-01T01:51:01.793Z,12.20
2018-10-01T01:53:30.148Z,12.21
2018-10-01T01:55:58.277Z,12.22
2018-10-01T01:58:26.419Z,12.23
2018-10-01T02:00:54.540Z,12.22
2018-10-01T02:03:22.640Z,12.21
2018-10-01T02:05:50.782Z,12.19
2018-10-01T02:08:18.912Z,12.20
2018-10-01T02:10:47.029Z,12.17
2018-10-01T02:13:15.173Z,12.17
2018-10-01T02:15:43.295Z,12.15
2018-10-01T02:18:11.445Z,12.13
2018-10-01T02:20:39.560Z,12.11
2018-10-01T02:23:08.931Z,12.12
2018-10-01T02:25:39.724Z,12.11
2018-10-01T02:28:08.100Z,12.09
2018-10-01T02:30:36.221Z,12.09
2018-10-01T02:33:04.384Z,12.07
2018-10-01T02:35:32.488Z,12.09
2018-10-01T02:38:00.597Z,12.07
2018-10-01T02:40:28.722Z,12.06
2018-10-01T02:42:56.860Z,12.05
2018-10-01T02:45:24.952Z,12.04
2018-10-01T02:47:53.171Z,12.03
2018-10-01T02:50:21.262Z,12.02
2018-10-01T02:52:54.857Z,12.01
2018-10-01T02:55:23.039Z,11.98
2018-10-01T02:57:51.126Z,11.95
2018-10-01T03:00:19.227Z,11.93
2018-10-01T03:02:47.357Z,11.92
2018-10-01T03:05:15.459Z,11.87
2018-10-01T03:07:43.583Z,11.86
2018-10-01T03:10:11.781Z,11.83
2018-10-01T03:12:39.911Z,11.81
2018-10-01T03:15:08.166Z,11.80
2018-10-01T03:17:36.319Z,11.79
2018-10-01T03:20:05.001Z,11.74
2018-10-01T03:22:33.100Z,11.75
2018-10-01T03:25:01.263Z,11.72
2018-10-01T03:27:29.372Z,11.71
2018-10-01T03:29:57.496Z,11.69
2018-10-01T03:32:25.665Z,11.67
2018-10-01T03:34:53.769Z,11.63
2018-10-01T03:37:21.901Z,11.60
2018-10-01T03:39:50.018Z,11.56
2018-10-01T03:42:18.167Z,11.51
2018-10-01T03:44:46.252Z,11.51
2018-10-01T03:47:14.357Z,11.48
2018-10-01T03:49:42.488Z,11.48
2018-10-01T03:52:10.707Z,11.45
2018-10-01T03:54:38.825Z,11.40
2018-10-01T03:57:06.974Z,11.35
2018-10-01T03:59:35.098Z,11.24
2018-10-01T04:02:03.238Z,11.18
2018-10-01T04:04:31.358Z,11.12
2018-10-01T04:06:59.460Z,11.07
2018-10-01T04:09:27.592Z,11.03
2018-10-01T04:11:55.704Z,10.99
2018-10-01T04:14:23.817Z,10.95
2018-10-01T04:16:52.007Z,10.90
2018-10-01T04:19:20.124Z,10.81
2018-10-01T04:21:48.282Z,10.79
2018-10-01T04:24:16.416Z,10.77
2018-10-01T04:26:44.561Z,10.72
2018-10-01T04:29:13.850Z,10.71
2018-10-01T04:31:42.950Z,10.71
2018-10-01T04:34:11.098Z,10.69
2018-10-01T04:36:39.230Z,10.68
2018-10-01T04:39:11.344Z,10.68
2018-10-01T04:41:39.805Z,10.64
2018-10-01T04:44:08.093Z,10.60
2018-10-01T04:46:37.161Z,10.59
2018-10-01T04:49:05.378Z,10.54
2018-10-01T04:51:33.477Z,10.51
2018-10-01T04:54:01.618Z,10.49
2018-10-01T04:56:29.724Z,10.45
2018-10-01T04:58:57.910Z,10.43
2018-10-01T05:01:34.796Z,10.38
2018-10-01T05:04:03.026Z,10.33
2018-10-01T05:06:31.178Z,10.30
2018-10-01T05:08:59.277Z,10.24
2018-10-01T05:11:27.436Z,10.23
2018-10-01T05:13:55.561Z,10.20
2018-10-01T05:16:23.661Z,10.16
2018-10-01T05:18:51.815Z,10.13
2018-10-01T05:21:19.931Z,10.12
2018-10-01T05:23:48.061Z,10.10
2018-10-01T05:26:16.205Z,10.09
2018-10-01T05:28:44.409Z,10.10
2018-10-01T05:31:12.547Z,10.11
2018-10-01T05:33:40.676Z,10.12
2018-10-01T05:36:08.817Z,10.11
2018-10-01T05:38:36.945Z,10.06
2018-10-01T05:41:05.093Z,10.05
2018-10-01T05:43:33.242Z,10.05
2018-10-01T05:46:01.454Z,10.09
2018-10-01T05:48:29.548Z,10.10
2018-10-01T05:50:57.693Z,10.14
2018-10-01T05:53:26.510Z,10.17
2018-10-01T05:55:54.830Z,10.21
2018-10-01T05:58:23.062Z,10.28
2018-10-01T06:00:51.261Z,10.31
2018-10-01T06:03:19.424Z,10.34
2018-10-01T06:05:47.649Z,10.33
2018-10-01T06:08:15.813Z,10.37
2018-10-01T06:10:44.148Z,10.40
2018-10-01T06:13:12.397Z,10.41
2018-10-01T06:15:40.545Z,10.43
2018-10-01T06:18:09.051Z,10.46
2018-10-01T06:20:37.291Z,10.48
2018-10-01T06:23:05.469Z,10.46
2018-10-01T06:25:33.744Z,10.47
2018-10-01T06:28:02.164Z,10.49
2018-10-01T06:30:30.559Z,10.51
2018-10-01T06:32:58.741Z,10.54
2018-10-01T06:35:26.971Z,10.58
2018-10-01T06:37:55.137Z,10.67
2018-10-01T06:40:23.290Z,10.77
2018-10-01T06:42:51.470Z,10.87
2018-10-01T06:45:19.682Z,10.95
2018-10-01T06:47:47.839Z,11.04
2018-10-01T06:50:16.081Z,11.19
2018-10-01T06:52:44.226Z,11.37
2018-10-01T06:55:12.365Z,11.56
2018-10-01T06:57:40.543Z,11.77
2018-10-01T07:00:09.207Z,11.89
2018-10-01T07:02:37.388Z,12.07
2018-10-01T07:05:05.615Z,12.04
2018-10-01T07:07:33.734Z,12.15
2018-10-01T07:10:01.925Z,12.24
2018-10-01T07:12:30.081Z,12.51
2018-10-01T07:14:58.389Z,12.84
2018-10-01T07:17:26.651Z,13.07
2018-10-01T07:19:54.738Z,13.22
2018-10-01T07:22:22.924Z,13.29
2018-10-01T07:24:51.017Z,13.38
2018-10-01T07:27:19.144Z,13.47
2018-10-01T07:29:47.361Z,13.52
2018-10-01T07:32:15.468Z,13.41
2018-10-01T07:34:43.640Z,13.26
2018-10-01T07:37:11.950Z,13.11
2018-10-01T07:39:40.122Z,13.00
2018-10-01T07:42:08.405Z,13.03
2018-10-01T07:44:36.597Z,13.04
2018-10-01T07:47:04.743Z,13.34
2018-10-01T07:49:32.895Z,13.69
2018-10-01T07:52:01.095Z,14.04
2018-10-01T07:54:29.208Z,14.45
2018-10-01T07:56:57.429Z,14.77
2018-10-01T07:59:25.651Z,15.04
2018-10-01T08:01:53.779Z,15.20
2018-10-01T08:04:21.961Z,15.28
2018-10-01T08:06:50.098Z,15.30
2018-10-01T08:09:18.288Z,15.55
2018-10-01T08:11:46.450Z,15.82
2018-10-01T08:14:14.877Z,16.08
2018-10-01T08:16:42.926Z,16.31
2018-10-01T08:19:11.073Z,16.49
2018-10-01T08:21:39.223Z,16.60
2018-10-01T08:24:07.352Z,16.69
2018-10-01T08:26:35.525Z,16.73
2018-10-01T08:29:03.596Z,16.75
2018-10-01T08:31:31.792Z,16.86
2018-10-01T08:33:59.932Z,17.04
2018-10-01T08:36:28.137Z,16.97
2018-10-01T08:38:56.366Z,16.78
2018-10-01T08:41:24.479Z,16.54
2018-10-01T08:43:52.632Z,16.72
2018-10-01T08:46:20.764Z,16.60
2018-10-01T08:48:53.229Z,16.34
2018-10-01T08:51:27.847Z,16.52
2018-10-01T08:54:05.477Z,16.61
2018-10-01T08:56:33.655Z,16.65
2018-10-01T08:59:01.806Z,16.71
2018-10-01T09:01:29.925Z,16.67
2018-10-01T09:03:58.055Z,16.32
2018-10-01T09:06:26.186Z,15.54
2018-10-01T09:08:54.336Z,15.22
2018-10-01T09:11:22.451Z,15.29
2018-10-01T09:13:50.588Z,15.35
2018-10-01T09:16:18.781Z,15.05
2018-10-01T09:18:46.970Z,15.04
2018-10-01T09:21:16.127Z,15.28
2018-10-01T09:23:44.302Z,15.21
2018-10-01T09:26:12.614Z,15.23
2018-10-01T09:28:40.711Z,15.13
2018-10-01T09:31:08.943Z,14.84
2018-10-01T09:33:37.133Z,14.72
2018-10-01T09:36:05.367Z,14.99
2018-10-01T09:38:34.554Z,15.20
2018-10-01T09:41:02.657Z,14.86
2018-10-01T09:43:30.842Z,14.92
2018-10-01T09:45:59.383Z,14.61
2018-10-01T09:48:27.586Z,14.28
2018-10-01T09:50:55.924Z,14.32
2018-10-01T09:53:25.502Z,14.24
2018-10-01T09:55:53.745Z,14.29
2018-10-01T09:58:21.957Z,14.19
2018-10-01T10:00:55.369Z,14.27
2018-10-01T10:03:24.449Z,14.18
2018-10-01T10:05:52.617Z,14.21
2018-10-01T10:08:21.131Z,14.49
2018-10-01T10:10:49.245Z,14.68
2018-10-01T10:13:17.501Z,14.54
2018-10-01T10:15:45.824Z,14.78
2018-10-01T10:18:15.334Z,14.89
2018-10-01T10:20:43.637Z,15.02
2018-10-01T10:23:11.877Z,15.08
2018-10-01T10:25:40.024Z,15.09
2018-10-01T10:28:08.246Z,15.07
2018-10-01T10:30:36.356Z,14.79
2018-10-01T10:33:04.597Z,14.67
2018-10-01T10:35:33.003Z,14.77
2018-10-01T10:38:02.249Z,14.93
2018-10-01T10:40:30.435Z,14.90
2018-10-01T10:42:58.593Z,14.92
2018-10-01T10:45:26.777Z,14.98
2018-10-01T10:47:55.082Z,15.07
2018-10-01T10:50:23.229Z,15.08
2018-10-01T10:52:51.381Z,15.10
2018-10-01T10:55:19.553Z,15.13
2018-10-01T10:57:47.784Z,15.16
2018-10-01T11:00:15.995Z,15.34
2018-10-01T11:02:44.257Z,15.51
2018-10-01T11:05:12.394Z,15.58
2018-10-01T11:07:41.414Z,15.61
2018-10-01T11:10:09.615Z,15.44
2018-10-01T11:12:38.033Z,15.27
2018-10-01T11:15:06.594Z,15.13
2018-10-01T11:17:34.715Z,15.01
2018-10-01T11:20:02.933Z,14.99
2018-10-01T11:22:31.099Z,14.94
2018-10-01T11:24:59.262Z,14.93
2018-10-01T11:27:27.436Z,14.87
2018-10-01T11:29:55.724Z,14.70
2018-10-01T11:32:23.858Z,14.59
2018-10-01T11:34:52.519Z,14.52
2018-10-01T11:37:20.647Z,14.65
2018-10-01T11:39:49.036Z,14.79
2018-10-01T11:42:17.082Z,14.55
2018-10-01T11:44:45.405Z,14.41
2018-10-01T11:47:13.862Z,14.19
2018-10-01T11:49:41.961Z,14.30
2018-10-01T11:52:10.093Z,14.17
2018-10-01T11:54:38.236Z,13.82
2018-10-01T11:57:07.010Z,12.78
2018-10-01T11:59:35.302Z,11.84
2018-10-01T12:02:03.404Z,11.02
2018-10-01T12:04:31.516Z,10.55
2018-10-01T12:06:59.662Z,10.34
2018-10-01T12:09:27.857Z,10.24
2018-10-01T12:11:55.954Z,10.14
2018-10-01T12:14:24.082Z,9.82
2018-10-01T12:16:52.200Z,9.73
2018-10-01T12:19:20.305Z,9.87
2018-10-01T12:21:48.524Z,9.67
2018-10-01T12:24:16.546Z,9.70
2018-10-01T12:26:44.628Z,9.73
2018-10-01T12:29:12.790Z,9.68
2018-10-01T12:31:40.823Z,9.75
2018-10-01T12:34:08.915Z,9.90
2018-10-01T12:36:37.040Z,9.92
2018-10-01T12:39:07.572Z,10.12
2018-10-01T12:41:35.608Z,10.40
2018-10-01T12:44:03.805Z,10.63
2018-10-01T12:46:31.995Z,10.83
2018-10-01T12:49:00.125Z,10.88
2018-10-01T12:51:28.419Z,11.11
2018-10-01T12:53:56.576Z,11.30
2018-10-01T12:56:24.695Z,11.49
2018-10-01T12:58:52.812Z,11.56
2018-10-01T13:01:20.982Z,11.71
2018-10-01T13:03:49.166Z,11.66
2018-10-01T13:06:17.322Z,11.76
2018-10-01T13:08:45.434Z,11.85
2018-10-01T13:11:13.677Z,11.89
2018-10-01T13:13:41.965Z,11.95
2018-10-01T13:16:10.130Z,11.89
2018-10-01T13:18:38.283Z,12.04
2018-10-01T13:21:06.594Z,12.18
2018-10-01T13:23:34.752Z,11.99
2018-10-01T13:26:02.994Z,12.29
2018-10-01T13:28:31.124Z,12.10
2018-10-01T13:30:59.278Z,12.17
2018-10-01T13:33:27.390Z,11.67
2018-10-01T13:35:55.613Z,10.36
2018-10-01T13:38:23.744Z,10.00
2018-10-01T13:40:51.898Z,9.85
2018-10-01T13:43:20.000Z,9.70
2018-10-01T13:45:48.161Z,9.58
2018-10-01T13:48:16.313Z,9.40
2018-10-01T13:50:44.388Z,9.26
2018-10-01T13:53:12.610Z,9.41
2018-10-01T13:55:40.712Z,9.35
2018-10-01T13:58:08.810Z,9.46
2018-10-01T14:03:11.237Z,9.61
2018-10-01T14:05:39.486Z,9.68
2018-10-01T14:08:07.569Z,9.75
2018-10-01T14:10:35.924Z,9.86
2018-10-01T14:13:04.089Z,9.93
2018-10-01T14:15:32.414Z,10.00
2018-10-01T14:18:00.530Z,10.08
2018-10-01T14:20:28.660Z,10.20
2018-10-01T14:22:56.793Z,10.39
2018-10-01T14:25:24.992Z,10.59
2018-10-01T14:27:53.112Z,10.83
2018-10-01T14:30:21.229Z,11.06
2018-10-01T14:32:49.374Z,11.29
2018-10-01T14:35:17.547Z,11.50
2018-10-01T14:37:45.660Z,11.63
2018-10-01T14:40:13.833Z,11.67
2018-10-01T14:42:41.951Z,11.73
2018-10-01T14:45:10.665Z,11.83
2018-10-01T14:47:38.768Z,11.92
2018-10-01T14:50:06.910Z,11.97
2018-10-01T14:52:35.049Z,11.86
2018-10-01T14:55:03.206Z,11.72
2018-10-01T14:57:31.352Z,11.76
2018-10-01T14:59:59.638Z,11.67
2018-10-01T15:02:27.711Z,11.76
2018-10-01T15:04:55.851Z,11.72
2018-10-01T15:07:23.956Z,11.66
2018-10-01T15:09:52.098Z,11.67
2018-10-01T15:12:20.334Z,11.62
2018-10-01T15:14:48.480Z,11.50
2018-10-01T15:17:16.626Z,11.53
2018-10-01T15:19:44.749Z,11.63
2018-10-01T15:22:13.118Z,11.67
2018-10-01T15:24:41.303Z,11.63
2018-10-01T15:27:09.449Z,11.62
2018-10-01T15:29:37.612Z,11.60
2018-10-01T15:32:05.752Z,11.64
2018-10-01T15:34:33.881Z,11.58
2018-10-01T15:37:01.991Z,11.58
2018-10-01T15:39:31.073Z,11.47
2018-10-01T15:41:59.258Z,11.10
2018-10-01T15:44:27.333Z,10.84
2018-10-01T15:46:55.944Z,10.58
2018-10-01T15:49:24.064Z,10.42
2018-10-01T15:51:52.179Z,10.33
2018-10-01T15:54:20.265Z,10.25
2018-10-01T15:56:48.385Z,10.13
2018-10-01T15:59:16.495Z,10.02
2018-10-01T16:01:50.128Z,9.95
2018-10-01T16:04:18.242Z,9.83
2018-10-01T16:06:46.413Z,9.66
2018-10-01T16:09:14.564Z,9.63
2018-10-01T16:11:42.724Z,9.60
2018-10-01T16:14:10.834Z,9.61
2018-10-01T16:16:38.908Z,9.63
2018-10-01T16:19:07.020Z,9.64
2018-10-01T16:21:35.158Z,9.54
2018-10-01T16:24:03.230Z,9.56
2018-10-01T16:26:33.247Z,9.52
2018-10-01T16:29:01.437Z,9.52
2018-10-01T16:31:29.574Z,9.52
2018-10-01T16:33:57.636Z,9.51
2018-10-01T16:36:26.255Z,9.50
2018-10-01T16:38:54.474Z,9.43
2018-10-01T16:41:22.565Z,9.36
2018-10-01T16:43:50.659Z,9.33
2018-10-01T16:46:18.830Z,9.32
2018-10-01T16:48:46.969Z,9.32
2018-10-01T16:51:15.068Z,9.31
2018-10-01T16:53:43.169Z,9.31
2018-10-01T16:56:11.268Z,9.29
2018-10-01T16:58:39.379Z,9.27
2018-10-01T17:01:07.567Z,9.27
2018-10-01T17:03:35.669Z,9.24
2018-10-01T17:06:03.769Z,9.20
2018-10-01T17:08:31.985Z,9.17
2018-10-01T17:11:00.337Z,9.15
2018-10-01T17:13:28.485Z,9.14
2018-10-01T17:15:56.548Z,9.11
2018-10-01T17:18:25.579Z,9.10
2018-10-01T17:20:53.756Z,9.07
2018-10-01T17:23:21.974Z,9.06
2018-10-01T17:25:50.050Z,9.05
2018-10-01T17:28:18.239Z,9.04
2018-10-01T17:30:46.402Z,9.06
2018-10-01T17:33:14.945Z,9.04
2018-10-01T17:35:43.117Z,9.04
2018-10-01T17:38:11.247Z,9.03
2018-10-01T17:40:39.402Z,8.98
2018-10-01T17:43:07.601Z,8.99
2018-10-01T17:45:35.837Z,8.93
2018-10-01T17:48:03.963Z,8.92
2018-10-01T17:50:32.078Z,8.90
2018-10-01T17:53:00.314Z,8.90
2018-10-01T17:55:28.393Z,8.88
2018-10-01T17:57:56.569Z,8.91
2018-10-01T18:00:24.729Z,8.91
2018-10-01T18:02:52.920Z,8.92
2018-10-01T18:05:21.129Z,8.93
2018-10-01T18:07:49.292Z,8.95
2018-10-01T18:10:17.365Z,8.98
2018-10-01T18:12:45.469Z,9.00
2018-10-01T18:15:13.589Z,9.02
2018-10-01T18:17:41.704Z,9.05
2018-10-01T18:20:09.797Z,9.05
2018-10-01T18:22:37.880Z,9.07
2018-10-01T18:25:06.980Z,9.05
2018-10-01T18:27:35.104Z,9.11
2018-10-01T18:30:03.234Z,9.13
2018-10-01T18:32:31.289Z,9.16
2018-10-01T18:34:59.406Z,9.15
2018-10-01T18:37:27.612Z,9.16
2018-10-01T18:39:55.790Z,9.16
2018-10-01T18:42:23.999Z,9.16
2018-10-01T18:44:52.025Z,9.14
2018-10-01T18:47:20.217Z,9.14
2018-10-01T18:49:48.317Z,9.11
2018-10-01T18:52:16.429Z,9.08
2018-10-01T18:54:44.570Z,9.05
2018-10-01T18:57:12.679Z,9.01
2018-10-01T18:59:40.762Z,8.98
2018-10-01T19:02:08.916Z,8.93
2018-10-01T19:04:36.984Z,8.91
2018-10-01T19:07:05.064Z,8.88
2018-10-01T19:09:33.238Z,8.85
2018-10-01T19:12:01.465Z,8.79
2018-10-01T19:14:29.476Z,8.79
2018-10-01T19:16:57.746Z,8.76
2018-10-01T19:19:25.820Z,8.75
2018-10-01T19:21:53.952Z,8.71
2018-10-01T19:24:22.132Z,8.71
2018-10-01T19:26:50.219Z,8.71
2018-10-01T19:29:18.348Z,8.69
2018-10-01T19:31:46.477Z,8.71
2018-10-01T19:34:14.545Z,8.71
2018-10-01T19:36:42.668Z,8.74
2018-10-01T19:39:10.783Z,8.73
2018-10-01T19:41:38.859Z,8.76
2018-10-01T19:44:06.973Z,8.78
2018-10-01T19:46:35.090Z,8.78
2018-10-01T19:49:03.177Z,8.74
2018-10-01T19:51:31.315Z,8.72
2018-10-01T19:53:59.430Z,8.70
2018-10-01T19:56:27.520Z,8.69
2018-10-01T19:58:55.800Z,8.61
2018-10-01T20:01:23.916Z,8.54
2018-10-01T20:03:52.175Z,8.55
2018-10-01T20:06:20.603Z,8.52
2018-10-01T20:08:48.845Z,8.48
2018-10-01T20:11:17.281Z,8.44
2018-10-01T20:13:45.300Z,8.38
2018-10-01T20:16:13.385Z,8.35
2018-10-01T20:18:41.484Z,8.31
2018-10-01T20:21:09.780Z,8.26
2018-10-01T20:23:37.836Z,8.23
2018-10-01T20:26:06.007Z,8.22
2018-10-01T20:28:34.382Z,8.17
2018-10-01T20:31:02.394Z,8.15
2018-10-01T20:33:30.578Z,8.12
2018-10-01T20:35:59.066Z,8.09
2018-10-01T20:38:27.061Z,8.06
2018-10-01T20:40:55.141Z,8.05
2018-10-01T20:43:23.230Z,8.02
2018-10-01T20:45:51.952Z,8.00
2018-10-01T20:48:20.098Z,7.97
2018-10-01T20:50:50.468Z,7.95
2018-10-01T20:53:19.112Z,7.90
2018-10-01T20:55:47.306Z,7.89
2018-10-01T20:58:15.472Z,7.88
2018-10-01T21:00:43.800Z,7.90
2018-10-01T21:03:12.185Z,7.87
2018-10-01T21:05:40.465Z,7.86
2018-10-01T21:08:08.560Z,7.85
2018-10-01T21:10:36.721Z,7.83
2018-10-01T21:13:04.985Z,7.80
2018-10-01T21:15:33.236Z,7.81
2018-10-01T21:18:01.350Z,7.80
2018-10-01T21:20:29.568Z,7.78
2018-10-01T21:22:57.642Z,7.78
2018-10-01T21:25:25.714Z,7.79
2018-10-01T21:27:53.812Z,7.78
2018-10-01T21:30:21.946Z,7.79
2018-10-01T21:32:50.029Z,7.79
2018-10-01T21:35:18.124Z,7.78
2018-10-01T21:37:46.199Z,7.75
2018-10-01T21:40:15.425Z,7.71
2018-10-01T21:42:43.701Z,7.70
2018-10-01T21:45:13.016Z,7.66
2018-10-01T21:47:41.133Z,7.62
2018-10-01T21:50:09.292Z,7.61
2018-10-01T21:52:37.364Z,7.58
2018-10-01T21:55:05.692Z,7.55
2018-10-01T21:57:33.749Z,7.51
2018-10-01T22:00:01.825Z,7.50
2018-10-01T22:02:29.912Z,7.48
2018-10-01T22:04:58.019Z,7.43
2018-10-01T22:07:26.156Z,7.40
2018-10-01T22:09:54.214Z,7.38
2018-10-01T22:12:22.265Z,7.32
2018-10-01T22:14:50.340Z,7.30
2018-10-01T22:17:18.404Z,7.29
2018-10-01T22:19:46.495Z,7.26
2018-10-01T22:22:14.558Z,7.23
2018-10-01T22:24:42.632Z,7.21
2018-10-01T22:27:10.776Z,7.17
2018-10-01T22:29:38.861Z,7.17
2018-10-01T22:32:06.922Z,7.14
2018-10-01T22:34:35.112Z,7.11
2018-10-01T22:37:03.165Z,7.08
2018-10-01T22:39:31.235Z,7.07
2018-10-01T22:41:59.316Z,7.04
2018-10-01T22:44:27.389Z,7.04
2018-10-01T22:46:55.467Z,7.04
2018-10-01T22:49:23.645Z,7.06
2018-10-01T22:51:51.721Z,7.03
2018-10-01T22:54:19.783Z,7.04
2018-10-01T22:56:47.854Z,6.99
2018-10-01T22:59:15.932Z,7.00
2018-10-01T23:01:44.015Z,6.99
2018-10-01T23:04:12.155Z,6.97
2018-10-01T23:06:40.229Z,6.94
2018-10-01T23:09:08.963Z,6.93
2018-10-01T23:11:37.243Z,6.91
2018-10-01T23:14:05.339Z,6.91
2018-10-01T23:16:33.580Z,6.89
2018-10-01T23:19:01.674Z,6.88
2018-10-01T23:21:29.869Z,6.89
2018-10-01T23:23:57.956Z,6.88
2018-10-01T23:26:26.039Z,6.86
2018-10-01T23:28:54.195Z,6.86
2018-10-01T23:31:22.260Z,6.86
2018-10-01T23:33:50.314Z,6.84
2018-10-01T23:36:18.404Z,6.84
2018-10-01T23:38:46.471Z,6.81
2018-10-01T23:41:14.556Z,6.81
2018-10-01T23:43:42.630Z,6.81
2018-10-01T23:46:10.713Z,6.80
2018-10-01T23:48:38.774Z,6.78
2018-10-01T23:51:06.841Z,6.77
2018-10-01T23:53:34.926Z,6.78
2018-10-01T23:56:03.043Z,6.78
2018-10-01T23:58:31.120Z,6.77
